x

North Hecate Strait (46183) Wave Buoy

11:00am - Fri 6th Mar 2015 All times are PST. -8 hours from GMT.

  • Sig Wave height 2.0ft
  • Peak Period 16s
  • Wind
    7mph
  • Sea Temp 48°f
  • Air Temp 46°f
  • Sea Pressure 1030.2mb
  • North Hecate Strait
  • North Hecate Strait

More Historic Weather Station data

Upgrade to MSW Pro to gain access to the past 30 days of data for over 8000 Wavebouys and Weather Stations around the globe.

Join Pro

Comparision Forecast

View Surf forecast
   
Fri 03/06 11:00am 2ft 16s 7
mph
1030.2mb 48f 46f
10:00am 2ft 6s 7
mph
1030mb 48f 46f
9:00am 2ft 6s 7 9 mph 1029.6mb 48f 46f
8:00am 2ft 7s 7 9 mph 1028.9mb 48f 46f
7:00am 2.5ft 7s 4 7 mph 1028.4mb 48f 47f
6:00am 2.5ft 7s 2 4 mph 1028.3mb 48f 46f
5:00am 2.5ft 7s 2 4 mph 1028.1mb 48f 46f
4:00am 3ft 7s  -  2 mph 1027.7mb 48f 46f
3:00am 3ft 8s 2
mph
1027.3mb 48f 46f
2:00am 3.5ft 6s  -  2 mph 1026.9mb 48f 46f
1:00am 3.5ft 7s 2
mph
1026.5mb 48f 46f
12:00am 4ft 7s 4
mph
1026mb 48f 46f
Thu 03/05 11:00pm 4.5ft 8s 4 7 mph 1025.5mb 48f 47f
10:00pm 4.5ft 7s 7 9 mph 1024.9mb 48f 46f
9:00pm 4.5ft 7s 13 16 mph 1024mb 48f 47f
8:00pm 5ft 8s 9 11 mph 1023.4mb 48f 47f
7:00pm 5ft 8s 13 16 mph 1022.1mb 48f 47f
6:00pm 5ft 7s 11 13 mph 1020.3mb 48f 48f
5:00pm 5ft 7s 13 16 mph 1018.9mb 48f 49f
4:00pm 5ft 8s 13 18 mph 1017.3mb 48f 49f
3:00pm 6ft 6s 22 29 mph 1014.8mb 48f 50f
2:00pm 6ft 6s 27 31 mph 1012.6mb 48f 49f
1:00pm 5.5ft 5s 29 36 mph 1011.9mb 48f 49f
12:00pm 5ft 5s 27 36 mph 1012mb 48f 49f
11:00am 4.5ft 5s 27 31 mph 1012.7mb 48f 49f
10:00am 4.5ft 5s 27 31 mph 1013.5mb 48f 48f
9:00am 4ft 6s 22 27 mph 1014.7mb 48f 48f
8:00am 3.5ft 6s 20 25 mph 1015.2mb 48f 48f
7:00am 3.5ft 7s 18 20 mph 1016mb 48f 48f
6:00am 4ft 6s 13 18 mph 1016.4mb 48f 48f
5:00am 4ft 6s 11
mph
1016.7mb 48f 48f
4:00am 4.5ft 6s 13 16 mph 1016.8mb 48f 48f
3:00am 4.5ft 6s 22 27 mph 1016.7mb 48f 47f
2:00am 5ft 6s 18 20 mph 1016.9mb 48f 48f
1:00am 5ft 6s 22 27 mph 1016.7mb 48f 47f
12:00am 5ft 5s 27 31 mph 1017.1mb 48f 46f
Wed 03/04 11:00pm 4.5ft 5s 25 31 mph 1017.8mb 48f 47f
10:00pm 4.5ft 5s 22 27 mph 1018mb 48f 47f
9:00pm 4ft 5s 22 27 mph 1018.7mb 48f 47f
8:00pm 4ft 5s 20 25 mph 1019mb 48f 47f
7:00pm 3.5ft 5s 22 27 mph 1019.1mb 48f 47f
5:00pm 3ft 5s 18 22 mph 1020.2mb 48f 46f
4:00pm 3ft 5s 18 22 mph 1020.7mb 48f 46f
3:00pm 3.5ft 5s 18 20 mph 1021mb 48f 47f
2:00pm 3ft 5s 18 22 mph 1021mb 48f 47f
12:00pm 3.5ft 4s 20 25 mph 1021.7mb 48f 46f
11:00am 3.5ft 4s 25 29 mph 1021.7mb 48f 45f
10:00am 3ft 4s 13 16 mph 1022.4mb 48f 47f
9:00am 3ft 4s 20 22 mph 1022.5mb 48f 46f
8:00am 2.5ft 4s 18 25 mph 1022.4mb 48f 46f
7:00am 2ft 4s 18 22 mph 1022.6mb 48f 46f
6:00am 1.6ft 3s 18 20 mph 1022.7mb 48f 46f
5:00am 1ft 3s 16 18 mph 1022.9mb 48f 46f
4:00am 0.3ft 2s 11 13 mph 1023.3mb 48f 46f
3:00am 0.3ft 16s 7 9 mph 1023.7mb 48f 46f
2:00am 0.3ft 10s 2 4 mph 1024mb 48f 46f
1:00am 0.3ft 16s  -  mph 1024.1mb 48f 46f
12:00am 0.3ft 3s  -  2 mph 1024.1mb 48f 46f
Tue 03/03 11:00pm 0.3ft 11s  -  mph 1023.9mb 48f 46f
10:00pm 0.3ft 12s  -  mph 1024mb 48f 46f
9:00pm 0.3ft 12s  -  mph 1024.1mb 48f 46f
8:00pm 0.3ft 11s  -  2 mph 1024.3mb 48f 46f
7:00pm 0.3ft 13s 2
mph
1024.5mb 48f 46f
6:00pm 0.3ft 3s 4
mph
1024.9mb 48f 46f
5:00pm 0.7ft 3s 4
mph
1025mb 48f 47f
4:00pm 0.7ft 4s 4
mph
1025.3mb 49f 47f
3:00pm 0.7ft 3s  -  mph 1025.3mb 49f 48f
2:00pm 0.7ft 4s  -  2 mph 1025.3mb 49f 49f
1:00pm 0.7ft 4s 2 4 mph 1025.4mb 48f 47f
12:00pm 0.7ft 4s 4
mph
1025.5mb 48f 47f
11:00am 0.7ft 4s 4
mph
1025.2mb 48f 47f
10:00am 0.7ft 4s 4
mph
1025.3mb 48f 46f
9:00am 0.7ft 4s 2
mph
1025.2mb 48f 47f
8:00am 0.7ft 4s 4
mph
1025.2mb 48f 45f
7:00am 0.7ft 4s 7 9 mph 1025.1mb 48f 45f
6:00am 0.7ft 4s 4 7 mph 1025.2mb 48f 46f
5:00am 0.7ft 4s 4
mph
1025.4mb 48f 45f
4:00am 1ft 4s  -  2 mph 1025.2mb 48f 46f
3:00am 1ft 4s 7 9 mph 1025.4mb 48f 46f
2:00am 1ft 4s 4 7 mph 1025.3mb 47f 46f
1:00am 1ft 4s 2
mph
1025mb 47f 46f
12:00am 1ft 4s 2
mph
1024.7mb 47f 46f
Mon 03/02 11:00pm 1ft 4s 2
mph
1024.6mb 48f 46f
10:00pm 1.3ft 4s 7 9 mph 1024.8mb 48f 46f
9:00pm 1.3ft 5s 4 7 mph 1024.9mb 48f 46f